Time;durP1;ratioP1;P1;durP2;ratioP2;P2;SDS_P1;SDS_P2;PMS_P1;PMS_P2;Temp;Humidity;BMP_temperature;BMP_pressure;BME280_temperature;BME280_humidity;BME280_pressure;Samples;Min_cycle;Max_cycle;Signal;HPM_P1;HPM_P2
2021/12/09 00:01:33;;;;;;;15.13;11.77;;;9.20;75.40;;;-142.21;100.00;112049.66;5091961;28;20446;-80
2021/12/09 00:04:11;;;;;;;14.87;11.60;;;9.20;75.40;;;-142.21;100.00;112049.66;5087414;28;20550;-80
2021/12/09 00:06:41;;;;;;;13.97;12.10;;;9.20;75.40;;;-142.21;100.00;112049.66;5091646;28;20558;-80
2021/12/09 00:09:12;;;;;;;15.87;11.50;;;9.20;75.60;;;-142.21;100.00;112049.66;5076788;28;20455;-80
2021/12/09 00:11:44;;;;;;;14.10;11.30;;;9.20;75.30;;;-142.21;100.00;112049.66;5075426;28;20539;-80
2021/12/09 00:14:17;;;;;;;17.30;11.47;;;9.20;75.30;;;-142.21;100.00;112049.66;5079009;28;20536;-80
2021/12/09 00:16:45;;;;;;;15.37;12.60;;;9.20;75.20;;;-142.21;100.00;112049.66;5075700;28;20447;-81
2021/12/09 00:19:13;;;;;;;14.10;11.60;;;9.20;75.00;;;-142.21;100.00;112049.66;5079272;28;20478;-79
2021/12/09 00:21:42;;;;;;;20.57;15.87;;;9.20;74.60;;;-142.21;100.00;112049.66;5075476;28;20524;-80
2021/12/09 00:24:10;;;;;;;17.03;12.60;;;9.10;74.10;;;-142.21;100.00;112049.66;5081677;28;20553;-81
2021/12/09 00:26:38;;;;;;;19.00;15.30;;;9.20;74.60;;;-142.21;100.00;112049.66;5079302;28;20489;-80
2021/12/09 00:29:06;;;;;;;15.57;12.97;;;9.20;74.50;;;-142.21;100.00;112049.66;5094274;28;20545;-80
2021/12/09 00:31:34;;;;;;;17.80;15.03;;;9.20;74.40;;;-142.21;100.00;112049.66;5094679;28;20469;-80
2021/12/09 00:34:02;;;;;;;15.67;12.00;;;9.10;74.40;;;-142.21;100.00;112049.66;5089151;28;20451;-80
2021/12/09 00:36:36;;;;;;;15.57;11.57;;;9.10;74.40;;;-142.21;100.00;112049.66;5078302;28;20446;-80
2021/12/09 00:39:09;;;;;;;13.30;10.13;;;9.10;75.50;;;-142.21;100.00;112049.66;5088062;28;20457;-81
2021/12/09 00:41:36;;;;;;;14.67;11.43;;;9.00;74.20;;;-142.21;100.00;112049.66;5075307;28;20451;-80
2021/12/09 00:44:05;;;;;;;13.30;10.53;;;8.90;73.70;;;-142.21;100.00;112049.66;5085243;28;20516;-80
2021/12/09 00:46:32;;;;;;;12.70;10.17;;;8.90;74.70;;;-142.21;100.00;112049.66;5084258;28;20487;-81
2021/12/09 00:49:00;;;;;;;13.13;10.37;;;8.80;73.30;;;-142.21;100.00;112049.66;5076808;28;20479;-81
2021/12/09 00:51:27;;;;;;;14.57;10.17;;;8.80;73.40;;;-142.21;100.00;112049.66;5093173;28;20545;-81
2021/12/09 00:53:54;;;;;;;14.47;10.07;;;8.80;74.00;;;-142.21;100.00;112049.66;5078610;28;20531;-80
2021/12/09 00:56:23;;;;;;;13.10;9.50;;;8.70;74.30;;;-142.21;100.00;112049.66;5068562;28;20492;-80
2021/12/09 00:58:51;;;;;;;17.10;10.43;;;8.60;73.90;;;-142.21;100.00;112049.66;5075332;28;20888;-80
2021/12/09 01:01:19;;;;;;;13.57;10.03;;;8.60;74.00;;;-142.21;100.00;112049.66;5062628;28;20451;-80
2021/12/09 01:03:46;;;;;;;13.33;9.77;;;8.60;74.40;;;-142.21;100.00;112049.66;5095502;28;20533;-80
2021/12/09 01:06:14;;;;;;;15.50;10.43;;;8.50;74.50;;;-142.21;100.00;112049.66;5088159;28;20535;-80
2021/12/09 01:08:42;;;;;;;14.80;10.67;;;8.50;74.20;;;-142.21;100.00;112049.66;5084528;28;20478;-80
2021/12/09 01:11:10;;;;;;;12.13;9.70;;;8.40;74.40;;;-142.21;100.00;112049.66;5088712;28;20535;-80
2021/12/09 01:13:40;;;;;;;15.43;10.10;;;8.40;73.90;;;-142.21;100.00;112049.66;5084717;28;20489;-79
2021/12/09 01:16:07;;;;;;;14.93;9.80;;;8.40;74.10;;;-142.21;100.00;112049.66;5068374;28;20518;-80
2021/12/09 01:18:36;;;;;;;11.83;9.67;;;8.40;74.20;;;-142.21;100.00;112049.66;5061589;28;20439;-79
2021/12/09 01:21:03;;;;;;;14.20;10.47;;;8.40;74.40;;;-142.21;100.00;112049.66;5089044;28;20519;-81
2021/12/09 01:23:31;;;;;;;12.67;9.27;;;8.40;74.10;;;-142.21;100.00;112049.66;5094791;28;20523;-80
2021/12/09 01:26:02;;;;;;;14.93;10.97;;;8.40;73.90;;;-142.21;100.00;112049.66;5084255;28;20446;-81
2021/12/09 01:28:34;;;;;;;12.47;9.40;;;8.40;73.60;;;-142.21;100.00;112049.66;5063650;27;20484;-80
2021/12/09 01:31:06;;;;;;;13.90;10.37;;;8.40;73.90;;;-142.21;100.00;112049.66;5071424;28;21015;-79
2021/12/09 01:33:36;;;;;;;11.67;9.10;;;8.40;73.50;;;-142.21;100.00;112049.66;5084191;28;20953;-79
2021/12/09 01:36:05;;;;;;;11.83;8.93;;;8.40;73.50;;;-142.21;100.00;112049.66;5090297;28;20451;-81
2021/12/09 01:38:33;;;;;;;11.03;8.50;;;8.40;73.90;;;-142.21;100.00;112049.66;5094591;28;20497;-79
2021/12/09 01:41:01;;;;;;;14.23;9.63;;;8.40;73.10;;;-142.21;100.00;112049.66;5089502;28;20451;-80
2021/12/09 01:43:28;;;;;;;13.60;9.03;;;8.40;73.80;;;-142.21;100.00;112049.66;5083982;28;20481;-80
2021/12/09 01:46:07;;;;;;;13.83;9.23;;;8.40;74.10;;;-142.21;100.00;112049.66;5090192;28;20448;-80
2021/12/09 01:48:35;;;;;;;12.00;8.47;;;8.30;75.00;;;-142.21;100.00;112049.66;5091567;28;20577;-80
2021/12/09 01:51:04;;;;;;;13.90;9.90;;;8.30;74.10;;;-142.21;100.00;112049.66;5086631;28;20537;-80
2021/12/09 01:53:31;;;;;;;15.27;10.03;;;8.30;74.30;;;-142.21;100.00;112049.66;5094486;28;20467;-79
2021/12/09 01:55:59;;;;;;;15.03;8.47;;;8.30;74.10;;;-142.21;100.00;112049.66;5084091;27;20455;-80
2021/12/09 01:58:27;;;;;;;14.43;8.53;;;8.30;73.90;;;-142.21;100.00;112049.66;5087059;28;20794;-80
2021/12/09 02:00:55;;;;;;;12.83;8.53;;;8.40;74.00;;;-142.21;100.00;112049.66;5093427;28;21016;-79
2021/12/09 02:03:25;;;;;;;13.00;8.80;;;8.40;73.60;;;-142.21;100.00;112049.66;5083536;28;20536;-81
2021/12/09 02:05:54;;;;;;;11.37;8.30;;;8.30;73.80;;;-142.21;100.00;112049.66;5088817;28;20521;-80
2021/12/09 02:08:25;;;;;;;11.20;8.00;;;8.30;73.70;;;-142.21;100.00;112049.66;5068726;28;20559;-80
2021/12/09 02:10:53;;;;;;;12.37;8.23;;;8.30;73.60;;;-142.21;100.00;112049.66;5089883;28;20462;-80
2021/12/09 02:13:22;;;;;;;12.50;8.27;;;8.30;73.20;;;-142.21;100.00;112049.66;5073058;28;20451;-80
2021/12/09 02:15:52;;;;;;;10.07;7.47;;;8.40;73.40;;;-142.21;100.00;112049.66;5074160;28;20523;-80
2021/12/09 02:18:21;;;;;;;10.77;7.87;;;8.30;73.40;;;-142.21;100.00;112049.66;5074242;28;20455;-80
2021/12/09 02:21:06;;;;;;;13.00;8.43;;;8.30;73.10;;;-142.21;100.00;112049.66;5084724;28;20457;-80
2021/12/09 02:23:35;;;;;;;14.33;8.70;;;8.30;74.40;;;-142.21;100.00;112049.66;5090853;28;20535;-80
2021/12/09 02:26:04;;;;;;;12.43;9.17;;;8.20;74.10;;;-142.21;100.00;112049.66;5086121;28;20450;-80
2021/12/09 02:28:32;;;;;;;13.43;8.97;;;8.10;74.10;;;-142.21;100.00;112049.66;5079555;28;20509;-80
2021/12/09 02:31:00;;;;;;;13.13;8.77;;;8.10;73.80;;;-142.21;100.00;112049.66;5082176;28;20474;-81
2021/12/09 02:33:28;;;;;;;11.70;7.80;;;8.10;74.10;;;-142.21;100.00;112049.66;5053963;28;20452;-81
2021/12/09 02:35:56;;;;;;;11.17;7.93;;;8.00;74.30;;;-142.21;100.00;112049.66;5074019;28;20443;-81
2021/12/09 02:38:24;;;;;;;12.23;7.97;;;8.00;74.10;;;-142.21;100.00;112049.66;5072924;28;20471;-80
2021/12/09 02:40:51;;;;;;;12.23;8.00;;;8.00;73.70;;;-142.21;100.00;112049.66;5077870;28;20533;-80
2021/12/09 02:43:27;;;;;;;9.17;7.63;;;8.00;74.00;;;-142.21;100.00;112049.66;5094156;28;20486;-80
2021/12/09 02:45:57;;;;;;;12.10;8.53;;;7.90;75.00;;;-142.21;100.00;112049.66;5085520;28;20456;-80
2021/12/09 02:48:25;;;;;;;12.17;7.97;;;7.90;75.10;;;-142.21;100.00;112049.66;5063233;28;20483;-80
2021/12/09 02:50:54;;;;;;;12.83;7.50;;;7.80;75.30;;;-142.21;100.00;112049.66;5085539;28;20475;-80
2021/12/09 02:53:23;;;;;;;12.67;7.67;;;7.70;75.60;;;-142.21;100.00;112049.66;5082416;28;20478;-80
2021/12/09 02:55:51;;;;;;;12.67;7.53;;;7.70;75.40;;;-142.21;100.00;112049.66;5078932;28;20486;-81
2021/12/09 02:58:18;;;;;;;9.47;6.87;;;7.70;75.00;;;-142.21;100.00;112049.66;5073578;28;20486;-80
2021/12/09 03:00:56;;;;;;;13.80;7.33;;;7.70;75.00;;;-142.21;100.00;112049.66;5077425;28;20505;-80
2021/12/09 03:03:25;;;;;;;10.70;7.67;;;7.60;75.80;;;-142.21;100.00;112049.66;5064749;28;20541;-80
2021/12/09 03:05:54;;;;;;;11.80;7.30;;;7.60;75.40;;;-142.21;100.00;112049.66;5066726;28;20454;-80
2021/12/09 03:08:33;;;;;;;10.63;7.87;;;7.50;75.70;;;-142.21;100.00;112049.66;5071507;28;20511;-80
2021/12/09 03:11:05;;;;;;;9.77;6.70;;;7.50;75.80;;;-142.21;100.00;112049.66;5067937;28;20447;-80
2021/12/09 03:13:33;;;;;;;11.70;7.70;;;7.50;75.10;;;-142.21;100.00;112049.66;5073349;28;20482;-79
2021/12/09 03:16:00;;;;;;;13.37;7.80;;;7.60;75.20;;;-142.21;100.00;112049.66;5074191;28;20479;-81
2021/12/09 03:18:28;;;;;;;12.30;7.73;;;7.50;74.90;;;-142.21;100.00;112049.66;5082523;28;20551;-80
2021/12/09 03:20:56;;;;;;;11.80;7.43;;;7.60;74.80;;;-142.21;100.00;112049.66;5073158;28;20467;-80
2021/12/09 03:23:27;;;;;;;11.77;7.43;;;7.50;74.80;;;-142.21;100.00;112049.66;5086463;28;20969;-80
2021/12/09 03:25:55;;;;;;;9.60;6.83;;;7.50;74.40;;;-142.21;100.00;112049.66;5085789;28;20530;-80
2021/12/09 03:28:22;;;;;;;11.37;7.50;;;7.60;73.80;;;-142.21;100.00;112049.66;5085133;28;20478;-79
2021/12/09 03:30:49;;;;;;;11.67;7.50;;;7.60;74.00;;;-142.21;100.00;112049.66;5078025;28;20470;-80
2021/12/09 03:33:17;;;;;;;12.10;7.05;;;7.70;74.20;;;-142.21;100.00;112049.66;5072660;28;20526;-80
2021/12/09 03:35:44;;;;;;;11.77;7.30;;;7.70;74.20;;;-142.21;100.00;112049.66;5072957;28;20217;-80
2021/12/09 03:38:12;;;;;;;10.50;7.37;;;7.70;74.10;;;-142.21;100.00;112049.66;5072600;28;20493;-80
2021/12/09 03:40:40;;;;;;;10.07;6.53;;;7.70;73.90;;;-142.21;100.00;112049.66;5059980;28;20509;-80
2021/12/09 03:43:08;;;;;;;8.60;6.30;;;7.70;73.90;;;-142.21;100.00;112049.66;5076772;28;20474;-80
2021/12/09 03:45:35;;;;;;;11.40;7.00;;;7.80;73.80;;;-142.21;100.00;112049.66;5092495;28;20532;-80
2021/12/09 03:48:03;;;;;;;10.50;6.20;;;7.70;74.00;;;-142.21;100.00;112049.66;5076907;28;20578;-80
2021/12/09 03:50:30;;;;;;;10.53;6.53;;;7.70;73.80;;;-142.21;100.00;112049.66;5095074;28;20439;-80
2021/12/09 03:52:58;;;;;;;12.60;6.80;;;7.70;73.40;;;-142.21;100.00;112049.66;5097042;28;20888;-80
2021/12/09 03:55:25;;;;;;;9.73;5.90;;;7.70;73.60;;;-142.21;100.00;112049.66;5089556;28;20543;-79
2021/12/09 03:57:54;;;;;;;12.10;6.50;;;7.70;73.50;;;-142.21;100.00;112049.66;5076245;28;20443;-80
2021/12/09 04:00:23;;;;;;;11.03;6.47;;;7.70;73.40;;;-142.21;100.00;112049.66;5090940;28;20482;-79
2021/12/09 04:02:51;;;;;;;11.57;7.23;;;7.60;73.30;;;-142.21;100.00;112049.66;5086955;28;20453;-80
2021/12/09 04:05:18;;;;;;;10.37;6.80;;;7.70;73.70;;;-142.21;100.00;112049.66;5077077;28;20448;-80
2021/12/09 04:07:45;;;;;;;11.40;6.40;;;7.60;73.50;;;-142.21;100.00;112049.66;5087092;28;20451;-80
2021/12/09 04:10:13;;;;;;;10.87;6.63;;;7.60;73.30;;;-142.21;100.00;112049.66;5079403;28;20474;-80
2021/12/09 04:12:40;;;;;;;11.33;6.80;;;7.60;73.40;;;-142.21;100.00;112049.66;5096183;28;20447;-79
2021/12/09 04:15:11;;;;;;;12.93;7.87;;;7.60;73.70;;;-142.21;100.00;112049.66;5079920;28;20459;-80
2021/12/09 04:17:38;;;;;;;19.40;12.03;;;7.50;74.40;;;-142.21;100.00;112049.66;5096033;28;20450;-80
2021/12/09 04:20:09;;;;;;;13.57;9.20;;;7.40;74.20;;;-142.21;100.00;112049.66;5096592;28;20454;-79
2021/12/09 04:22:41;;;;;;;15.40;10.63;;;7.40;74.80;;;-142.21;100.00;112049.66;5093744;28;20481;-80
2021/12/09 04:25:09;;;;;;;13.97;8.50;;;7.30;75.10;;;-142.21;100.00;112049.66;5094022;28;20451;-80
2021/12/09 04:27:37;;;;;;;14.10;9.93;;;7.30;77.00;;;-142.21;100.00;112049.66;5083313;28;20454;-81
2021/12/09 04:30:05;;;;;;;15.53;9.50;;;7.30;75.50;;;-142.21;100.00;112049.66;5081458;28;20497;-80
2021/12/09 04:32:34;;;;;;;17.60;11.60;;;7.30;75.90;;;-142.21;100.00;112049.66;5090000;28;20470;-80
2021/12/09 04:35:01;;;;;;;12.30;9.83;;;7.20;76.10;;;-142.21;100.00;112049.66;5080595;28;20892;-80
2021/12/09 04:37:29;;;;;;;11.60;8.97;;;7.20;75.90;;;-142.21;100.00;112049.66;5094063;28;20442;-80
2021/12/09 04:39:56;;;;;;;14.83;8.60;;;7.20;76.50;;;-142.21;100.00;112049.66;5078841;28;20951;-81
2021/12/09 04:42:23;;;;;;;21.43;12.23;;;7.20;76.60;;;-142.21;100.00;112049.66;5076538;28;20985;-80
2021/12/09 04:44:50;;;;;;;14.60;11.27;;;7.20;76.20;;;-142.21;100.00;112049.66;5094222;28;21000;-80
2021/12/09 04:47:18;;;;;;;13.83;9.10;;;7.20;76.50;;;-142.21;100.00;112049.66;5096533;28;20918;-81
2021/12/09 04:49:47;;;;;;;18.57;13.13;;;7.20;76.60;;;-142.21;100.00;112049.66;5069606;28;20547;-80
2021/12/09 04:52:15;;;;;;;16.70;10.20;;;7.20;76.50;;;-142.21;100.00;112049.66;5075024;28;20554;-82
2021/12/09 04:54:42;;;;;;;9.63;8.33;;;7.10;76.50;;;-142.21;100.00;112049.66;5091592;28;20478;-80
2021/12/09 04:57:11;;;;;;;10.70;6.55;;;7.20;76.10;;;-142.21;100.00;112049.66;5096077;28;20930;-80
2021/12/09 04:59:38;;;;;;;10.37;6.57;;;7.20;76.20;;;-142.21;100.00;112049.66;5095351;28;20295;-81
2021/12/09 05:02:10;;;;;;;14.00;7.20;;;7.20;75.70;;;-142.21;100.00;112049.66;5096393;28;20478;-81
2021/12/09 05:04:38;;;;;;;11.40;6.73;;;7.30;75.10;;;-142.21;100.00;112049.66;5082967;28;20492;-81
2021/12/09 05:07:07;;;;;;;12.90;7.40;;;7.30;74.80;;;-142.21;100.00;112049.66;5085513;28;20890;-81
2021/12/09 05:09:38;;;;;;;16.23;7.70;;;7.30;74.90;;;-142.21;100.00;112049.66;5055519;28;20511;-81
2021/12/09 05:12:08;;;;;;;12.63;7.40;;;7.20;74.70;;;-142.21;100.00;112049.66;5073002;28;20448;-81
2021/12/09 05:14:35;;;;;;;10.00;6.70;;;7.20;75.00;;;-142.21;100.00;112049.66;5086780;28;20448;-80
2021/12/09 05:17:04;;;;;;;9.17;6.57;;;7.20;74.30;;;-142.21;100.00;112049.66;5077709;28;20534;-81
2021/12/09 05:19:31;;;;;;;14.07;7.53;;;7.30;74.40;;;-142.21;100.00;112049.66;5080279;28;20451;-80
2021/12/09 05:21:58;;;;;;;14.77;6.73;;;7.20;74.20;;;-142.21;100.00;112049.66;5075807;28;20570;-80
2021/12/09 05:24:27;;;;;;;11.10;6.90;;;7.20;74.50;;;-142.21;100.00;112049.66;5064176;28;20475;-81
2021/12/09 05:26:56;;;;;;;16.00;8.87;;;7.10;74.80;;;-142.21;100.00;112049.66;5061389;28;20476;-81
2021/12/09 05:29:30;;;;;;;11.17;7.33;;;7.00;75.10;;;-142.21;100.00;112049.66;5055436;28;20902;-80
2021/12/09 05:32:08;;;;;;;10.17;6.33;;;6.90;76.10;;;-142.21;100.00;112049.66;5071310;28;20501;-81
2021/12/09 05:34:37;;;;;;;10.50;6.83;;;6.90;75.40;;;-142.21;100.00;112049.66;5059007;28;20482;-80
2021/12/09 05:37:07;;;;;;;12.20;7.80;;;6.90;75.70;;;-142.21;100.00;112049.66;5069552;28;20540;-82
2021/12/09 05:39:38;;;;;;;13.93;7.60;;;7.00;75.60;;;-142.21;100.00;112049.66;5063371;28;20487;-79
2021/12/09 05:42:06;;;;;;;15.63;7.30;;;6.90;75.60;;;-142.21;100.00;112049.66;5071811;28;20447;-80
2021/12/09 05:44:34;;;;;;;12.90;7.33;;;7.00;75.60;;;-142.21;100.00;112049.66;5064595;28;20501;-80
2021/12/09 05:47:05;;;;;;;9.97;7.17;;;7.00;75.50;;;-142.21;100.00;112049.66;5073469;28;20494;-82
2021/12/09 05:49:33;;;;;;;12.03;7.60;;;6.90;76.40;;;-142.21;100.00;112049.66;5073379;28;20482;-79
2021/12/09 05:52:01;;;;;;;11.57;7.57;;;6.80;76.90;;;-142.21;100.00;112049.66;5072335;28;20572;-80
2021/12/09 05:54:28;;;;;;;14.03;8.07;;;6.70;77.30;;;-142.21;100.00;112049.66;5070720;28;20462;-79
2021/12/09 05:56:58;;;;;;;13.43;7.60;;;6.80;77.30;;;-142.21;100.00;112049.66;5060555;28;20489;-79
2021/12/09 05:59:26;;;;;;;15.27;7.77;;;6.80;77.70;;;-142.21;100.00;112049.66;5065510;28;20492;-80
2021/12/09 06:01:53;;;;;;;12.37;8.00;;;6.70;78.00;;;-142.21;100.00;112049.66;5057326;28;20479;-78
2021/12/09 06:04:22;;;;;;;14.93;8.33;;;6.70;78.20;;;-142.21;100.00;112049.66;5053739;28;20492;-79
2021/12/09 06:06:51;;;;;;;14.73;7.60;;;6.60;78.40;;;-142.21;100.00;112049.66;5080105;28;20451;-78
2021/12/09 06:09:19;;;;;;;12.47;7.87;;;6.60;78.50;;;-142.21;100.00;112049.66;5078922;28;20997;-79
2021/12/09 06:11:50;;;;;;;15.00;8.20;;;6.70;78.40;;;-142.21;100.00;112049.66;5092273;28;20485;-79
2021/12/09 06:14:19;;;;;;;13.83;7.87;;;6.70;78.90;;;-142.21;100.00;112049.66;5073416;28;20480;-79
2021/12/09 06:16:46;;;;;;;15.73;7.50;;;6.60;78.80;;;-142.21;100.00;112049.66;5075025;28;20542;-79
2021/12/09 06:19:14;;;;;;;12.03;7.80;;;6.70;78.30;;;-142.21;100.00;112049.66;5071346;28;20504;-80
2021/12/09 06:21:41;;;;;;;13.63;7.87;;;6.70;78.50;;;-142.21;100.00;112049.66;5072935;28;20936;-79
2021/12/09 06:24:09;;;;;;;17.50;8.20;;;6.70;78.20;;;-142.21;100.00;112049.66;5073556;28;20460;-79
2021/12/09 06:26:36;;;;;;;13.10;8.03;;;6.80;77.60;;;-142.21;100.00;112049.66;5072812;28;20478;-79
2021/12/09 06:29:07;;;;;;;19.93;11.43;;;6.90;77.30;;;-142.21;100.00;112049.66;5073205;28;20822;-78
2021/12/09 06:31:36;;;;;;;11.37;8.33;;;7.00;77.00;;;-142.21;100.00;112049.66;5074528;28;20435;-81
2021/12/09 06:34:04;;;;;;;12.27;7.60;;;7.00;77.00;;;-142.21;100.00;112049.66;5055606;28;20880;-79
2021/12/09 06:36:31;;;;;;;13.23;7.53;;;7.10;76.60;;;-142.21;100.00;112049.66;5082849;28;20446;-80
2021/12/09 06:38:58;;;;;;;10.90;7.53;;;7.10;76.40;;;-142.21;100.00;112049.66;5087392;28;20478;-79
2021/12/09 06:41:26;;;;;;;11.70;8.03;;;7.20;76.30;;;-142.21;100.00;112049.66;5092220;28;20507;-78
2021/12/09 06:43:53;;;;;;;13.23;7.27;;;7.30;76.00;;;-142.21;100.00;112049.66;5087090;28;20478;-79
2021/12/09 06:46:20;;;;;;;10.37;7.47;;;7.30;75.50;;;-142.21;100.00;112049.66;5062736;28;20450;-80
2021/12/09 06:48:50;;;;;;;11.40;7.40;;;7.30;75.70;;;-142.21;100.00;112049.66;5078268;28;20971;-79
2021/12/09 06:51:18;;;;;;;16.63;8.10;;;7.30;75.90;;;-142.21;100.00;112049.66;5076225;28;20462;-79
2021/12/09 06:53:45;;;;;;;11.13;7.33;;;7.30;75.80;;;-142.21;100.00;112049.66;5092166;28;20872;-80
2021/12/09 06:56:13;;;;;;;11.00;7.13;;;7.30;75.50;;;-142.21;100.00;112049.66;5089233;28;20453;-81
2021/12/09 06:58:40;;;;;;;9.07;7.27;;;7.40;75.60;;;-142.21;100.00;112049.66;5070161;28;20847;-81
2021/12/09 07:01:08;;;;;;;13.47;7.87;;;7.40;75.50;;;-142.21;100.00;112049.66;5073243;28;20531;-80
2021/12/09 07:03:38;;;;;;;11.67;7.03;;;7.40;75.20;;;-142.21;100.00;112049.66;5070227;28;20486;-80
2021/12/09 07:06:11;;;;;;;12.13;7.53;;;7.50;75.70;;;-142.21;100.00;112049.66;5078130;28;20439;-81
2021/12/09 07:08:45;;;;;;;11.50;7.10;;;7.50;75.60;;;-142.21;100.00;112049.66;5092021;28;20461;-81
2021/12/09 07:11:13;;;;;;;10.67;7.10;;;7.50;75.10;;;-142.21;100.00;112049.66;5058024;28;20456;-81
2021/12/09 07:17:41;;;;;;;10.93;7.87;;;7.30;76.90;;;-142.21;100.00;112049.66;5079093;28;20433;-77
2021/12/09 07:20:17;;;;;;;11.23;7.97;;;7.30;77.00;;;-142.21;100.00;112049.66;5093012;28;20489;-76
2021/12/09 07:22:48;;;;;;;11.17;8.00;;;7.30;76.50;;;-142.21;100.00;112049.66;5074599;28;20586;-78
2021/12/09 07:25:38;;;;;;;14.23;8.85;;;7.40;76.60;;;-142.21;100.00;112049.66;5004543;27;1363643;-79
2021/12/09 07:28:05;;;;;;;9.57;8.23;;;7.50;76.30;;;-142.21;100.00;112049.66;5050215;28;20252;-78
2021/12/09 07:30:39;;;;;;;13.87;8.57;;;7.60;75.90;;;-142.21;100.00;112049.66;5049482;28;20510;-77
2021/12/09 07:33:07;;;;;;;13.43;9.60;;;7.70;76.00;;;-142.21;100.00;112049.66;5043019;28;20443;-79
2021/12/09 07:35:36;;;;;;;13.40;9.17;;;7.70;75.40;;;-142.21;100.00;112049.66;5033257;28;20442;-78
2021/12/09 07:38:06;;;;;;;13.27;9.30;;;7.70;75.80;;;-142.21;100.00;112049.66;5044648;28;20453;-79
2021/12/09 07:40:35;;;;;;;14.03;9.27;;;7.70;75.40;;;-142.21;100.00;112049.66;5048756;28;20456;-79
2021/12/09 07:43:02;;;;;;;16.07;9.70;;;7.80;75.30;;;-142.21;100.00;112049.66;5048192;28;20462;-76
2021/12/09 07:45:31;;;;;;;18.83;9.50;;;7.80;75.00;;;-142.21;100.00;112049.66;5028513;28;20539;-77
2021/12/09 07:47:59;;;;;;;13.67;8.87;;;7.80;75.30;;;-142.21;100.00;112049.66;5010840;28;21268;-78
2021/12/09 07:50:31;;;;;;;16.53;9.50;;;7.80;75.20;;;-142.21;100.00;112049.66;5041286;28;20531;-79
2021/12/09 07:53:00;;;;;;;13.00;9.37;;;7.80;75.10;;;-142.21;100.00;112049.66;5047886;28;20417;-78
2021/12/09 07:55:29;;;;;;;16.67;9.60;;;7.80;74.70;;;-142.21;100.00;112049.66;5035844;28;20782;-78
2021/12/09 07:57:58;;;;;;;11.53;10.13;;;7.90;74.80;;;-142.21;100.00;112049.66;5026987;28;20940;-78
2021/12/09 08:00:30;;;;;;;13.17;9.53;;;7.90;74.60;;;-142.21;100.00;112049.66;5039399;28;20476;-78
2021/12/09 08:03:00;;;;;;;17.17;10.73;;;7.90;74.60;;;-142.21;100.00;112049.66;5047006;28;20480;-78
2021/12/09 08:05:31;;;;;;;11.77;9.80;;;8.00;74.50;;;-142.21;100.00;112049.66;5046772;28;20480;-78
2021/12/09 08:07:59;;;;;;;12.93;9.10;;;8.00;74.40;;;-142.21;100.00;112049.66;5046138;28;20494;-77
2021/12/09 08:10:26;;;;;;;14.47;9.70;;;8.00;74.10;;;-142.21;100.00;112049.66;5048043;28;20554;-78
2021/12/09 08:12:54;;;;;;;12.67;9.67;;;8.10;74.10;;;-142.21;100.00;112049.66;5027359;28;20452;-78
2021/12/09 08:15:23;;;;;;;12.77;9.63;;;8.00;73.90;;;-142.21;100.00;112049.66;5041468;28;21281;-76
2021/12/09 08:18:02;;;;;;;11.47;8.63;;;8.00;73.90;;;-142.21;100.00;112049.66;5029567;28;20446;-78
2021/12/09 08:20:33;;;;;;;15.37;9.57;;;8.00;74.10;;;-142.21;100.00;112049.66;5028442;28;20508;-77
2021/12/09 08:23:01;;;;;;;16.00;9.53;;;8.10;74.20;;;-142.21;100.00;112049.66;5044788;28;20857;-77
2021/12/09 08:25:29;;;;;;;12.47;9.20;;;8.10;73.80;;;-142.21;100.00;112049.66;5008792;28;20500;-77
2021/12/09 08:27:56;;;;;;;14.97;10.53;;;8.10;73.70;;;-142.21;100.00;112049.66;4988197;28;20487;-77
2021/12/09 08:30:27;;;;;;;14.30;9.37;;;8.10;73.80;;;-142.21;100.00;112049.66;4988717;28;20506;-77
2021/12/09 08:32:55;;;;;;;13.87;9.07;;;8.10;74.30;;;-142.21;100.00;112049.66;4988106;28;20455;-78
2021/12/09 08:35:23;;;;;;;13.63;9.50;;;8.10;74.30;;;-142.21;100.00;112049.66;4983596;28;20592;-77
2021/12/09 08:37:54;;;;;;;13.67;9.30;;;8.10;74.20;;;-142.21;100.00;112049.66;4993431;28;20447;-77
2021/12/09 08:40:22;;;;;;;14.50;8.93;;;8.10;73.90;;;-142.21;100.00;112049.66;4993449;28;20447;-78
2021/12/09 08:42:50;;;;;;;16.03;9.50;;;8.00;73.80;;;-142.21;100.00;112049.66;4994284;28;20450;-77
2021/12/09 08:45:19;;;;;;;11.90;9.13;;;8.10;73.90;;;-142.21;100.00;112049.66;4984899;28;20562;-77
2021/12/09 08:47:50;;;;;;;15.13;9.90;;;8.10;73.80;;;-142.21;100.00;112049.66;4975132;28;20959;-78
2021/12/09 08:50:21;;;;;;;13.47;8.93;;;8.10;73.70;;;-142.21;100.00;112049.66;4983579;28;20478;-77
2021/12/09 08:52:51;;;;;;;12.73;8.97;;;8.10;74.00;;;-142.21;100.00;112049.66;4993822;28;20505;-77
2021/12/09 08:55:19;;;;;;;13.73;8.80;;;8.10;73.50;;;-142.21;100.00;112049.66;4986557;28;20456;-77
2021/12/09 08:57:47;;;;;;;11.73;8.40;;;8.10;73.10;;;-142.21;100.00;112049.66;4975405;28;20514;-77
2021/12/09 09:00:18;;;;;;;12.43;9.30;;;7.90;73.20;;;-142.21;100.00;112049.66;4974948;28;20456;-77
2021/12/09 09:02:50;;;;;;;12.57;9.00;;;7.90;73.90;;;-142.21;100.00;112049.66;4991223;28;20455;-77
2021/12/09 09:05:17;;;;;;;11.63;8.77;;;7.90;73.50;;;-142.21;100.00;112049.66;4994005;28;20964;-77
2021/12/09 09:07:47;;;;;;;12.07;8.57;;;7.80;73.50;;;-142.21;100.00;112049.66;4977148;28;20451;-77
2021/12/09 09:10:18;;;;;;;11.00;8.03;;;7.90;73.90;;;-142.21;100.00;112049.66;4974976;28;20800;-77
2021/12/09 09:12:46;;;;;;;11.57;8.90;;;7.80;73.90;;;-142.21;100.00;112049.66;4977550;28;21034;-77
2021/12/09 09:15:17;;;;;;;14.50;9.13;;;7.90;73.80;;;-142.21;100.00;112049.66;4974880;28;20960;-77
2021/12/09 09:17:47;;;;;;;10.60;8.80;;;7.90;73.90;;;-142.21;100.00;112049.66;4982229;28;20499;-78
2021/12/09 09:20:19;;;;;;;12.60;8.70;;;7.90;73.80;;;-142.21;100.00;112049.66;4974013;28;20506;-77
2021/12/09 09:22:47;;;;;;;15.20;9.57;;;7.90;73.80;;;-142.21;100.00;112049.66;4990411;28;20448;-78
2021/12/09 09:25:20;;;;;;;11.17;8.67;;;7.80;73.80;;;-142.21;100.00;112049.66;5005914;28;20495;-78
2021/12/09 09:27:49;;;;;;;11.93;8.53;;;7.90;73.80;;;-142.21;100.00;112049.66;4994640;28;20458;-78
2021/12/09 09:30:20;;;;;;;11.50;8.90;;;7.80;73.80;;;-142.21;100.00;112049.66;4995631;28;20494;-79
2021/12/09 09:32:51;;;;;;;12.93;8.20;;;7.90;73.50;;;-142.21;100.00;112049.66;4977279;28;20455;-78
2021/12/09 09:35:20;;;;;;;10.83;7.93;;;7.90;73.60;;;-142.21;100.00;112049.66;4994833;28;20506;-77
2021/12/09 09:37:48;;;;;;;9.57;8.57;;;8.00;73.40;;;-142.21;100.00;112049.66;4993472;28;20455;-76
2021/12/09 09:40:27;;;;;;;12.27;8.30;;;8.00;73.00;;;-142.21;100.00;112049.66;4993328;28;20454;-78
2021/12/09 09:43:01;;;;;;;10.33;7.60;;;8.10;73.70;;;-142.21;100.00;112049.66;4996921;28;20446;-77
2021/12/09 09:45:30;;;;;;;10.03;8.10;;;8.10;73.70;;;-142.21;100.00;112049.66;4993921;28;20992;-78
2021/12/09 09:47:59;;;;;;;10.33;8.07;;;8.10;73.50;;;-142.21;100.00;112049.66;4993381;28;20513;-78
2021/12/09 09:50:27;;;;;;;9.83;7.60;;;8.10;73.10;;;-142.21;100.00;112049.66;4996082;28;20502;-78
2021/12/09 09:52:54;;;;;;;9.90;7.27;;;8.10;73.00;;;-142.21;100.00;112049.66;5013696;28;20862;-77
2021/12/09 09:55:22;;;;;;;12.47;7.50;;;8.20;73.10;;;-142.21;100.00;112049.66;5011276;28;20552;-78
2021/12/09 09:57:52;;;;;;;11.97;8.13;;;8.20;72.70;;;-142.21;100.00;112049.66;4994174;28;20607;-77
2021/12/09 10:00:23;;;;;;;9.93;7.40;;;8.20;72.40;;;-142.21;100.00;112049.66;4994987;28;20518;-77
2021/12/09 10:02:53;;;;;;;10.10;6.97;;;8.20;72.20;;;-142.21;100.00;112049.66;4997421;28;20475;-78
2021/12/09 10:05:36;;;;;;;11.57;7.33;;;8.20;71.60;;;-142.21;100.00;112049.66;4994052;28;20503;-78